»·PEaware :: CCP1 KJAC-KASE

CCP1 :: KJAC-KASE

FLIGHT INFORMATION

Flight Status: Arrived
Operator: Unknown
More flights by this operator :: More flights under this callsign
Pilot: Max W. (2591)
Aircraft: BOEING 727-100
(B721)
More flights by this aircraft type
Origin: KJAC Jackson Hole
United States
Destination: KASE Aspen-Pitkin Co/Sardy
United States
More flights between these airports :: More routes between these airports
Route: ALPIN2 KICNE OCS EKR DBL
File this flight plan on PilotEdge
Remarks: STUDENT PILOT FAILED MY V1 5X SORRY KEITH
Altitude:
(Current/Filed)
25,000ft
Speed:
(Current/Filed)
450kts
Departed: 13-Apr-19 11:10 AM
Arrived: 13-Apr-19 11:57 AM
Distance/Time
Traveled:
315nm/0:47
Distance/Time
To Go:
Arrived

Flight Plot

Page will automatically refresh every two minutes.

Flight plan parsing failed; only flown route is shown


Map Options




Map Legend


Flown Route
Filed Route
Departure Airport
Arrival Airport
Navaid (VOR, NDB)
Fix

Horizontal Profiles

Position Reports

Time Latitude Longitude Heading Altitude Ground
Speed
13-Apr-19 10:35 43.600786 -110.738039 285 6431ft 0kts
13-Apr-19 10:36 43.600786 -110.738039 285 6431ft 0kts
13-Apr-19 10:37 43.600786 -110.738039 285 6431ft 0kts
13-Apr-19 10:38 43.600786 -110.738039 285 6431ft 0kts
13-Apr-19 10:39 43.600786 -110.738039 285 6431ft 0kts
13-Apr-19 10:40 43.600786 -110.738039 285 6431ft 0kts
13-Apr-19 10:41 43.600786 -110.738039 285 6431ft 0kts
13-Apr-19 10:42 43.600786 -110.738039 285 6431ft 0kts
13-Apr-19 10:43 43.600786 -110.738039 285 6431ft 0kts
13-Apr-19 10:44 43.600786 -110.738039 285 6431ft 0kts
13-Apr-19 10:45 43.600786 -110.738039 285 6431ft 0kts
13-Apr-19 10:46 43.600786 -110.738039 285 6431ft 0kts
13-Apr-19 10:47 43.600786 -110.738039 285 6431ft 0kts
13-Apr-19 10:48 43.600786 -110.738040 285 6431ft 0kts
13-Apr-19 10:49 43.600786 -110.738040 285 6432ft 0kts
13-Apr-19 10:50 43.600786 -110.738040 285 6432ft 0kts
13-Apr-19 10:51 43.600786 -110.738040 285 6432ft 0kts
13-Apr-19 10:52 43.600786 -110.738040 285 6432ft 0kts
13-Apr-19 10:53 43.600786 -110.738040 285 6432ft 0kts
13-Apr-19 10:54 43.600786 -110.738040 285 6432ft 0kts
13-Apr-19 10:55 43.600786 -110.738040 285 6432ft 0kts
13-Apr-19 10:56 43.600786 -110.738040 285 6432ft 0kts
13-Apr-19 10:57 43.600786 -110.738040 285 6432ft 0kts
13-Apr-19 10:58 43.600786 -110.738040 285 6432ft 0kts
13-Apr-19 10:59 43.600786 -110.738040 285 6432ft 0kts
13-Apr-19 11:00 43.600786 -110.738040 285 6432ft 0kts
13-Apr-19 11:01 43.600786 -110.738040 285 6432ft 0kts
13-Apr-19 11:02 43.600786 -110.738040 285 6432ft 0kts
13-Apr-19 11:03 43.601759 -110.738548 334 6432ft 14kts
13-Apr-19 11:04 43.603513 -110.737995 18 6432ft 3kts
13-Apr-19 11:05 43.607847 -110.735931 19 6432ft 22kts
13-Apr-19 11:06 43.613790 -110.733012 19 6432ft 22kts
13-Apr-19 11:07 43.614835 -110.732595 351 6432ft 0kts
13-Apr-19 11:08 43.615089 -110.734028 195 6432ft 0kts
13-Apr-19 11:09 43.591954 -110.746321 206 7392ft 154kts
13-Apr-19 11:10 43.542397 -110.779961 203 10363ft 229kts
13-Apr-19 11:11 43.480246 -110.820653 208 14287ft 260kts
13-Apr-19 11:12 43.398862 -110.873826 207 15302ft 395kts
13-Apr-19 11:13 43.312190 -110.929064 211 21271ft 349kts
13-Apr-19 11:14 43.221336 -110.987101 212 24326ft 369kts
13-Apr-19 11:15 43.109353 -110.974667 160 25130ft 473kts
13-Apr-19 11:16 43.006256 -110.836172 132 25130ft 557kts
13-Apr-19 11:17 42.895365 -110.689191 135 25127ft 593kts
13-Apr-19 11:19 42.777855 -110.535835 135 25109ft 586kts
13-Apr-19 11:20 42.660543 -110.381754 135 25094ft 586kts
13-Apr-19 11:21 42.547885 -110.235231 136 25088ft 585kts
13-Apr-19 11:22 42.429480 -110.081346 136 25091ft 585kts
13-Apr-19 11:23 42.310490 -109.927445 136 25093ft 585kts
13-Apr-19 11:24 42.191086 -109.773850 136 25096ft 586kts
13-Apr-19 11:25 42.071740 -109.621170 136 25098ft 587kts
13-Apr-19 11:26 41.952773 -109.469810 136 25100ft 587kts
13-Apr-19 11:27 41.842260 -109.330800 137 25086ft 587kts
13-Apr-19 11:28 41.722844 -109.181241 137 25087ft 586kts
13-Apr-19 11:29 41.607303 -109.036564 137 25090ft 584kts
13-Apr-19 11:30 41.465768 -108.940411 147 25087ft 575kts
13-Apr-19 11:31 41.344135 -108.804907 160 25079ft 568kts
13-Apr-19 11:32 41.197955 -108.726975 151 25100ft 569kts
13-Apr-19 11:33 41.058842 -108.624644 152 25098ft 570kts
13-Apr-19 11:34 40.919343 -108.524545 151 25096ft 570kts
13-Apr-19 11:35 40.797224 -108.437899 151 25097ft 568kts
13-Apr-19 11:36 40.663900 -108.343175 151 25098ft 567kts
13-Apr-19 11:37 40.525082 -108.245183 151 25098ft 566kts
13-Apr-19 11:38 40.385576 -108.146923 152 25100ft 566kts
13-Apr-19 11:39 40.245915 -108.048979 152 25101ft 566kts
13-Apr-19 11:40 40.106283 -107.951497 151 25101ft 566kts
13-Apr-19 11:41 39.981518 -107.833859 128 24483ft 541kts
13-Apr-19 11:41 39.914672 -107.699561 115 21688ft 523kts
13-Apr-19 11:43 39.825219 -107.539303 127 17955ft 509kts
13-Apr-19 11:44 39.742310 -107.399764 126 17010ft 452kts
13-Apr-19 11:44 39.690566 -107.313333 127 16986ft 298kts
13-Apr-19 11:46 39.630674 -107.213346 127 17048ft 305kts
13-Apr-19 11:47 39.579188 -107.127285 127 16079ft 298kts
13-Apr-19 11:47 39.533743 -107.069214 132 16015ft 252kts
13-Apr-19 11:49 39.476071 -106.991210 157 14273ft 238kts
13-Apr-19 11:49 39.429780 -106.967982 160 13192ft 215kts
13-Apr-19 11:50 39.381875 -106.945829 161 12984ft 169kts
13-Apr-19 11:51 39.337541 -106.923689 161 11789ft 171kts
13-Apr-19 11:52 39.297542 -106.895242 140 10663ft 174kts
13-Apr-19 11:54 39.250334 -106.851886 150 10392ft 177kts
13-Apr-19 11:54 39.214311 -106.829567 153 9505ft 167kts
13-Apr-19 11:55 39.195728 -106.852147 305 8540ft 142kts
13-Apr-19 11:56 39.223111 -106.868584 28 7785ft 22kts
13-Apr-19 11:57 39.223133 -106.867175 226 7785ft 0kts

Navigation Log

Ident Type
Flight plan parsing failed, navigation log unavailable